WetterOnline ( https://www.wetteronline.de )

Wetter aktuell Hagen

Aktuelles Wetter: Lüdenscheid (392m)

6-stündlich | Neueste Meldungen
Ortszeit Temperatur Wetter
Fr, 19.04. 2:00 11.7° C wolkig
Do, 18.04. 20:00 16.6° C fast wolkenlos
Do, 18.04. 14:00 18.0° C wolkig
Do, 18.04. 8:00 10.7° C bedeckt
Do, 18.04. 2:00 11.2° C bedeckt
Mi, 17.04. 20:00 13.5° C bewölkt
Mi, 17.04. 14:00 14.0° C bedeckt
Mi, 17.04. 8:00 8.7° C bewölkt
Ortszeit Temperatur Wetter
Fr, 19.04. 6:00 9.7° C leicht bewölkt
Fr, 19.04. 5:50 9.7° C leicht bewölkt
Fr, 19.04. 5:40 9.7° C leicht bewölkt
Fr, 19.04. 5:30 10.0° C leicht bewölkt
Fr, 19.04. 5:20 10.0° C leicht bewölkt
Fr, 19.04. 5:10 10.1° C leicht bewölkt
Fr, 19.04. 5:00 9.8° C wolkig
Fr, 19.04. 4:30 10.2° C bedeckt
Fr, 19.04. 4:00 10.9° C bedeckt
Fr, 19.04. 3:30 11.1° C wolkig
Fr, 19.04. 3:00 11.3° C wolkig
Ortszeit Relative Feuchte Sichtweite
Fr, 19.04. 2:00 47% 50 km
Do, 18.04. 20:00 35% 45 km
Do, 18.04. 14:00 35% 50 km
Do, 18.04. 8:00 58% 40 km
Do, 18.04. 2:00 48% 45 km
Mi, 17.04. 20:00 49% 45 km
Mi, 17.04. 14:00 61% 35 km
Mi, 17.04. 8:00 68% 40 km
Ortszeit Relative Feuchte Sichtweite
Fr, 19.04. 6:00 55% 45 km
Fr, 19.04. 5:50 55% -
Fr, 19.04. 5:40 55% -
Fr, 19.04. 5:30 53% 40 km
Fr, 19.04. 5:20 53% -
Fr, 19.04. 5:10 53% -
Fr, 19.04. 5:00 54% 45 km
Fr, 19.04. 4:30 52% 45 km
Fr, 19.04. 4:00 49% 50 km
Fr, 19.04. 3:30 49% -
Fr, 19.04. 3:00 48% 50 km
Ortszeit Niederschlagsmenge Niederschlagsart
Fr, 19.04. 2:00 0.0 l/m2 in 6 Std. -
Do, 18.04. 20:00 0.0 l/m2 in 12 Std. -
Do, 18.04. 14:00 0.0 l/m2 in 6 Std. -
Do, 18.04. 8:00 0.0 l/m2 in 12 Std. -
Do, 18.04. 2:00 0.0 l/m2 in 6 Std. -
Mi, 17.04. 20:00 0.1 l/m2 in 12 Std. Regen
Mi, 17.04. 14:00 0.1 l/m2 in 6 Std. Regen
Mi, 17.04. 8:00 0.1 l/m2 in 12 Std. Regen
Ortszeit Niederschlagsmenge Niederschlagsart
Fr, 19.04. 6:00 0.0 l/m2 in 1 Std. -
Fr, 19.04. 5:50 keine Meldung -
Fr, 19.04. 5:40 keine Meldung -
Fr, 19.04. 5:30 0.0 l/m2 in 1 Std. -
Fr, 19.04. 5:20 keine Meldung -
Fr, 19.04. 5:10 keine Meldung -
Fr, 19.04. 5:00 0.0 l/m2 in 1 Std. -
Fr, 19.04. 4:30 0.0 l/m2 in 1 Std. -
Fr, 19.04. 4:00 0.0 l/m2 in 1 Std. -
Fr, 19.04. 3:30 0.0 l/m2 in 1 Std. -
Fr, 19.04. 3:00 0.0 l/m2 in 1 Std. -
Ortszeit Stärke Spitze Richtung
km/h Bft. km/h Grad Sektor
Fr, 19.04. 2:00 13 3 33 80° O
Do, 18.04. 20:00 24 4 44 90° O
Do, 18.04. 14:00 24 4 46 80° O
Do, 18.04. 8:00 13 3 28 100° O
Do, 18.04. 2:00 13 3 31 80° O
Mi, 17.04. 20:00 13 3 31 100° O
Mi, 17.04. 14:00 13 3 44 170° S
Mi, 17.04. 8:00 7 2 11 110° O
Ortszeit Stärke Spitze Richtung
km/h Bft. km/h Grad Sektor
Fr, 19.04. 6:00 9 2 13 60° NO
Fr, 19.04. 5:50 9 2 - 60° NO
Fr, 19.04. 5:40 9 2 - 60° NO
Fr, 19.04. 5:30 7 2 11 50° NO
Fr, 19.04. 5:20 7 2 - 50° NO
Fr, 19.04. 5:10 6 1 - 60° NO
Fr, 19.04. 5:00 4 1 11 50° NO
Fr, 19.04. 4:30 7 2 11 60° NO
Fr, 19.04. 4:00 11 2 14 70° O
Fr, 19.04. 3:30 11 2 14 70° O
Fr, 19.04. 3:00 11 2 18 90° O
Ortszeit Untergrenze Bedeckung Gattung
total tief tief mittel hoch
Fr, 19.04. 2:00 6900 m 8/8 1/8 - - -
Do, 18.04. 20:00 4500 m 1/8 1/8 - - -
Do, 18.04. 14:00 3900 m 8/8 8/8 - - -
Do, 18.04. 8:00 3300 m 8/8 8/8 - - -
Do, 18.04. 2:00 3300 m 8/8 8/8 - - -
Mi, 17.04. 20:00 1800 m 8/8 7/8 - - -
Mi, 17.04. 14:00 1020 m 8/8 8/8 - - -
Mi, 17.04. 8:00 2100 m 8/8 7/8 - - -
Ortszeit Bedeckungsgrad in Achtel und Wolkenuntergrenze
Fr, 19.04. 6:00 3(9000m)
Fr, 19.04. 5:50 3(9000m)
Fr, 19.04. 5:40 5(9000m)
Fr, 19.04. 5:30 6(9000m)
Fr, 19.04. 5:20 6(9000m)
Fr, 19.04. 5:10 4(9000m)
Fr, 19.04. 5:00 5(6900m) 5(8700m)
Fr, 19.04. 4:30 8(6900m) 8(8700m)
Fr, 19.04. 4:00 8(6900m) 8(9000m) 8(9000m)
Fr, 19.04. 3:30 8(7500m) 8(9000m) 8(9000m)
Fr, 19.04. 3:00 8(8100m) 8(9000m)
Ortszeit Luftdruck NN (hPa) Tendenz (hPa in 3 Std.)
Fr, 19.04. 2:00 1028 + 0,6
Do, 18.04. 20:00 1025 + 0,8
Do, 18.04. 14:00 1024 - 1,0
Do, 18.04. 8:00 1026 + 0,6
Do, 18.04. 2:00 1025 + 0,8
Mi, 17.04. 20:00 1023 + 0,4
Mi, 17.04. 14:00 1022 + 0,4
Mi, 17.04. 8:00 1022 + 0,8
Ortszeit Luftdruck NN (hPa) Tendenz (hPa in 3 Std.)
Fr, 19.04. 6:00 1028 + 0,4
Fr, 19.04. 5:50 1028 keine Meldung
Fr, 19.04. 5:40 1028 keine Meldung
Fr, 19.04. 5:30 1028 + 0,2
Fr, 19.04. 5:20 1028 keine Meldung
Fr, 19.04. 5:10 1028 keine Meldung
Fr, 19.04. 5:00 1028 + 0,2
Fr, 19.04. 4:30 1028 + 0,1
Fr, 19.04. 4:00 1028 + 0,1
Fr, 19.04. 3:30 1028 + 0,2
Fr, 19.04. 3:00 1028 + 0,3
Ortszeit Schneehöhe (cm)
Fr, 19.04. 2:00 0
Do, 18.04. 20:00 0
Do, 18.04. 14:00 0
Do, 18.04. 8:00 0
Do, 18.04. 2:00 0
Mi, 17.04. 20:00 0
Mi, 17.04. 14:00 0
Mi, 17.04. 8:00 0
Ortszeit Schneehöhe (cm)
Fr, 19.04. 6:00 0
Fr, 19.04. 5:50 0
Fr, 19.04. 5:40 0
Fr, 19.04. 5:30 0
Fr, 19.04. 5:20 0
Fr, 19.04. 5:10 0
Fr, 19.04. 5:00 0
Fr, 19.04. 4:30 0
Fr, 19.04. 4:00 0
Fr, 19.04. 3:30 0
Fr, 19.04. 3:00 0
Link zu dieser Seite / Seite empfehlen

Das Wetter in ...